sensor_id;sensor_type;location;lat;lon;timestamp;P1;durP1;ratioP1;P2;durP2;ratioP2
69026;SDS011;56080;47.594;19.116;2022-08-19T00:02:39;9.30;;;6.00;;
69026;SDS011;56080;47.594;19.116;2022-08-19T00:07:39;9.20;;;6.40;;
69026;SDS011;56080;47.594;19.116;2022-08-19T00:12:39;9.20;;;6.40;;
69026;SDS011;56080;47.594;19.116;2022-08-19T00:17:39;7.90;;;5.70;;
69026;SDS011;56080;47.594;19.116;2022-08-19T00:22:39;7.90;;;5.70;;
69026;SDS011;56080;47.594;19.116;2022-08-19T00:27:39;7.70;;;5.50;;
69026;SDS011;56080;47.594;19.116;2022-08-19T00:32:41;7.70;;;5.50;;
69026;SDS011;56080;47.594;19.116;2022-08-19T00:37:39;9.10;;;6.10;;
69026;SDS011;56080;47.594;19.116;2022-08-19T00:42:39;9.10;;;6.10;;
69026;SDS011;56080;47.594;19.116;2022-08-19T00:47:39;9.00;;;6.50;;
69026;SDS011;56080;47.594;19.116;2022-08-19T00:52:43;9.00;;;6.50;;
69026;SDS011;56080;47.594;19.116;2022-08-19T00:57:44;9.10;;;6.60;;
69026;SDS011;56080;47.594;19.116;2022-08-19T01:02:40;9.10;;;6.60;;
69026;SDS011;56080;47.594;19.116;2022-08-19T01:07:47;8.50;;;6.10;;
69026;SDS011;56080;47.594;19.116;2022-08-19T01:12:39;8.50;;;6.10;;
69026;SDS011;56080;47.594;19.116;2022-08-19T01:17:39;10.40;;;6.80;;
69026;SDS011;56080;47.594;19.116;2022-08-19T01:22:48;10.40;;;6.80;;
69026;SDS011;56080;47.594;19.116;2022-08-19T01:27:49;9.20;;;6.60;;
69026;SDS011;56080;47.594;19.116;2022-08-19T01:32:44;9.20;;;6.60;;
69026;SDS011;56080;47.594;19.116;2022-08-19T01:37:51;10.30;;;7.30;;
69026;SDS011;56080;47.594;19.116;2022-08-19T01:42:41;10.30;;;7.30;;
69026;SDS011;56080;47.594;19.116;2022-08-19T01:47:39;8.30;;;6.50;;
69026;SDS011;56080;47.594;19.116;2022-08-19T01:52:39;8.30;;;6.50;;
69026;SDS011;56080;47.594;19.116;2022-08-19T01:57:39;9.00;;;6.90;;
69026;SDS011;56080;47.594;19.116;2022-08-19T02:02:39;9.00;;;6.90;;
69026;SDS011;56080;47.594;19.116;2022-08-19T02:07:40;8.90;;;6.90;;
69026;SDS011;56080;47.594;19.116;2022-08-19T02:12:39;8.90;;;6.90;;
69026;SDS011;56080;47.594;19.116;2022-08-19T02:17:39;8.30;;;6.50;;
69026;SDS011;56080;47.594;19.116;2022-08-19T02:22:40;8.30;;;6.50;;
69026;SDS011;56080;47.594;19.116;2022-08-19T02:27:39;8.90;;;7.00;;
69026;SDS011;56080;47.594;19.116;2022-08-19T02:32:41;8.90;;;7.00;;
69026;SDS011;56080;47.594;19.116;2022-08-19T02:37:49;9.80;;;6.90;;
69026;SDS011;56080;47.594;19.116;2022-08-19T02:42:39;9.80;;;6.90;;
69026;SDS011;56080;47.594;19.116;2022-08-19T02:47:39;9.50;;;7.60;;
69026;SDS011;56080;47.594;19.116;2022-08-19T02:52:39;9.50;;;7.60;;
69026;SDS011;56080;47.594;19.116;2022-08-19T02:57:40;9.70;;;6.90;;
69026;SDS011;56080;47.594;19.116;2022-08-19T03:02:40;9.70;;;6.90;;
69026;SDS011;56080;47.594;19.116;2022-08-19T03:07:39;10.00;;;6.70;;
69026;SDS011;56080;47.594;19.116;2022-08-19T03:12:39;10.00;;;6.70;;
69026;SDS011;56080;47.594;19.116;2022-08-19T03:17:39;10.50;;;6.90;;
69026;SDS011;56080;47.594;19.116;2022-08-19T03:22:40;10.50;;;6.90;;
69026;SDS011;56080;47.594;19.116;2022-08-19T03:27:45;10.20;;;7.10;;
69026;SDS011;56080;47.594;19.116;2022-08-19T03:32:43;10.20;;;7.10;;
69026;SDS011;56080;47.594;19.116;2022-08-19T03:37:39;9.30;;;7.20;;
69026;SDS011;56080;47.594;19.116;2022-08-19T03:42:51;9.30;;;7.20;;
69026;SDS011;56080;47.594;19.116;2022-08-19T03:47:40;8.60;;;6.60;;
69026;SDS011;56080;47.594;19.116;2022-08-19T03:52:39;8.60;;;6.60;;
69026;SDS011;56080;47.594;19.116;2022-08-19T03:57:44;9.40;;;6.30;;
69026;SDS011;56080;47.594;19.116;2022-08-19T04:02:39;9.40;;;6.30;;
69026;SDS011;56080;47.594;19.116;2022-08-19T04:07:39;8.50;;;6.80;;
69026;SDS011;56080;47.594;19.116;2022-08-19T04:12:39;8.50;;;6.80;;
69026;SDS011;56080;47.594;19.116;2022-08-19T04:17:39;9.70;;;6.40;;
69026;SDS011;56080;47.594;19.116;2022-08-19T04:22:40;9.70;;;6.40;;
69026;SDS011;56080;47.594;19.116;2022-08-19T04:27:39;12.00;;;7.50;;
69026;SDS011;56080;47.594;19.116;2022-08-19T04:32:42;12.00;;;7.50;;
69026;SDS011;56080;47.594;19.116;2022-08-19T04:37:46;10.70;;;7.10;;
69026;SDS011;56080;47.594;19.116;2022-08-19T04:42:49;10.70;;;7.10;;
69026;SDS011;56080;47.594;19.116;2022-08-19T04:47:54;10.50;;;7.10;;
69026;SDS011;56080;47.594;19.116;2022-08-19T04:52:42;10.50;;;7.10;;
69026;SDS011;56080;47.594;19.116;2022-08-19T04:57:39;12.10;;;7.40;;
69026;SDS011;56080;47.594;19.116;2022-08-19T05:02:39;12.10;;;7.40;;
69026;SDS011;56080;47.594;19.116;2022-08-19T05:07:39;20.90;;;7.70;;
69026;SDS011;56080;47.594;19.116;2022-08-19T05:12:40;20.90;;;7.70;;
69026;SDS011;56080;47.594;19.116;2022-08-19T05:17:45;12.00;;;6.30;;
69026;SDS011;56080;47.594;19.116;2022-08-19T05:22:46;12.00;;;6.30;;
69026;SDS011;56080;47.594;19.116;2022-08-19T05:27:40;12.60;;;7.10;;
69026;SDS011;56080;47.594;19.116;2022-08-19T05:32:39;12.60;;;7.10;;
69026;SDS011;56080;47.594;19.116;2022-08-19T05:37:39;9.70;;;6.90;;
69026;SDS011;56080;47.594;19.116;2022-08-19T05:42:40;9.70;;;6.90;;
69026;SDS011;56080;47.594;19.116;2022-08-19T05:47:39;11.50;;;6.60;;
69026;SDS011;56080;47.594;19.116;2022-08-19T05:57:39;10.90;;;5.80;;
69026;SDS011;56080;47.594;19.116;2022-08-19T06:02:40;10.90;;;5.80;;
69026;SDS011;56080;47.594;19.116;2022-08-19T06:07:39;10.30;;;6.40;;
69026;SDS011;56080;47.594;19.116;2022-08-19T06:12:43;10.30;;;6.40;;
69026;SDS011;56080;47.594;19.116;2022-08-19T06:17:40;10.30;;;5.90;;
69026;SDS011;56080;47.594;19.116;2022-08-19T06:22:40;10.30;;;5.90;;
69026;SDS011;56080;47.594;19.116;2022-08-19T06:27:41;9.60;;;6.20;;
69026;SDS011;56080;47.594;19.116;2022-08-19T06:32:39;9.60;;;6.20;;
69026;SDS011;56080;47.594;19.116;2022-08-19T06:37:39;9.50;;;5.70;;
69026;SDS011;56080;47.594;19.116;2022-08-19T06:42:39;9.50;;;5.70;;
69026;SDS011;56080;47.594;19.116;2022-08-19T06:47:39;7.80;;;5.00;;
69026;SDS011;56080;47.594;19.116;2022-08-19T06:52:41;7.80;;;5.00;;
69026;SDS011;56080;47.594;19.116;2022-08-19T06:57:43;7.20;;;4.00;;
69026;SDS011;56080;47.594;19.116;2022-08-19T07:02:40;7.20;;;4.00;;
69026;SDS011;56080;47.594;19.116;2022-08-19T07:07:39;7.80;;;4.20;;
69026;SDS011;56080;47.594;19.116;2022-08-19T07:12:43;7.80;;;4.20;;
69026;SDS011;56080;47.594;19.116;2022-08-19T07:17:39;7.30;;;4.50;;
69026;SDS011;56080;47.594;19.116;2022-08-19T07:22:41;7.30;;;4.50;;
69026;SDS011;56080;47.594;19.116;2022-08-19T07:27:44;6.90;;;4.00;;
69026;SDS011;56080;47.594;19.116;2022-08-19T07:32:41;6.90;;;4.00;;
69026;SDS011;56080;47.594;19.116;2022-08-19T07:37:45;7.70;;;4.40;;
69026;SDS011;56080;47.594;19.116;2022-08-19T07:42:40;7.70;;;4.40;;
69026;SDS011;56080;47.594;19.116;2022-08-19T07:47:50;8.90;;;6.60;;
69026;SDS011;56080;47.594;19.116;2022-08-19T07:52:39;8.90;;;6.60;;
69026;SDS011;56080;47.594;19.116;2022-08-19T07:57:39;7.80;;;6.00;;
69026;SDS011;56080;47.594;19.116;2022-08-19T08:02:39;7.80;;;6.00;;
69026;SDS011;56080;47.594;19.116;2022-08-19T08:07:52;8.20;;;6.30;;
69026;SDS011;56080;47.594;19.116;2022-08-19T08:12:48;8.20;;;6.30;;
69026;SDS011;56080;47.594;19.116;2022-08-19T08:17:49;7.60;;;5.90;;
69026;SDS011;56080;47.594;19.116;2022-08-19T08:22:52;7.60;;;5.90;;
69026;SDS011;56080;47.594;19.116;2022-08-19T08:27:46;7.70;;;6.00;;
69026;SDS011;56080;47.594;19.116;2022-08-19T08:32:40;7.70;;;6.00;;
69026;SDS011;56080;47.594;19.116;2022-08-19T08:37:40;7.50;;;5.20;;
69026;SDS011;56080;47.594;19.116;2022-08-19T08:42:44;7.50;;;5.20;;
69026;SDS011;56080;47.594;19.116;2022-08-19T08:47:45;6.00;;;4.10;;
69026;SDS011;56080;47.594;19.116;2022-08-19T08:52:50;6.00;;;4.10;;
69026;SDS011;56080;47.594;19.116;2022-08-19T09:02:39;6.70;;;4.40;;
69026;SDS011;56080;47.594;19.116;2022-08-19T09:08:07;7.70;;;3.60;;
69026;SDS011;56080;47.594;19.116;2022-08-19T09:12:53;7.70;;;3.60;;
69026;SDS011;56080;47.594;19.116;2022-08-19T09:17:41;8.10;;;5.00;;
69026;SDS011;56080;47.594;19.116;2022-08-19T09:22:40;8.10;;;5.00;;
69026;SDS011;56080;47.594;19.116;2022-08-19T09:27:50;6.70;;;4.00;;
69026;SDS011;56080;47.594;19.116;2022-08-19T09:32:40;6.70;;;4.00;;
69026;SDS011;56080;47.594;19.116;2022-08-19T09:37:39;5.90;;;3.30;;
69026;SDS011;56080;47.594;19.116;2022-08-19T09:42:41;5.90;;;3.30;;
69026;SDS011;56080;47.594;19.116;2022-08-19T09:47:46;7.10;;;3.60;;
69026;SDS011;56080;47.594;19.116;2022-08-19T09:52:43;7.10;;;3.60;;
69026;SDS011;56080;47.594;19.116;2022-08-19T09:57:39;6.70;;;4.20;;
69026;SDS011;56080;47.594;19.116;2022-08-19T10:02:39;6.70;;;4.20;;
69026;SDS011;56080;47.594;19.116;2022-08-19T10:07:47;6.20;;;4.20;;
69026;SDS011;56080;47.594;19.116;2022-08-19T10:12:39;6.20;;;4.20;;
69026;SDS011;56080;47.594;19.116;2022-08-19T10:17:45;6.40;;;3.80;;
69026;SDS011;56080;47.594;19.116;2022-08-19T10:22:41;6.40;;;3.80;;
69026;SDS011;56080;47.594;19.116;2022-08-19T10:27:42;6.40;;;3.80;;
69026;SDS011;56080;47.594;19.116;2022-08-19T10:32:44;7.00;;;4.50;;
69026;SDS011;56080;47.594;19.116;2022-08-19T10:37:44;7.00;;;4.50;;
69026;SDS011;56080;47.594;19.116;2022-08-19T10:42:41;6.40;;;4.00;;
69026;SDS011;56080;47.594;19.116;2022-08-19T10:47:43;6.40;;;4.00;;
69026;SDS011;56080;47.594;19.116;2022-08-19T10:52:45;7.40;;;4.60;;
69026;SDS011;56080;47.594;19.116;2022-08-19T10:57:50;7.40;;;4.60;;
69026;SDS011;56080;47.594;19.116;2022-08-19T11:02:39;7.50;;;3.80;;
69026;SDS011;56080;47.594;19.116;2022-08-19T11:07:39;7.50;;;3.80;;
69026;SDS011;56080;47.594;19.116;2022-08-19T11:12:40;6.50;;;4.50;;
69026;SDS011;56080;47.594;19.116;2022-08-19T11:17:41;6.50;;;4.50;;
69026;SDS011;56080;47.594;19.116;2022-08-19T11:22:51;9.20;;;4.40;;
69026;SDS011;56080;47.594;19.116;2022-08-19T11:27:40;9.20;;;4.40;;
69026;SDS011;56080;47.594;19.116;2022-08-19T11:32:40;8.10;;;4.40;;
69026;SDS011;56080;47.594;19.116;2022-08-19T11:37:39;8.10;;;4.40;;
69026;SDS011;56080;47.594;19.116;2022-08-19T11:42:49;7.40;;;4.40;;
69026;SDS011;56080;47.594;19.116;2022-08-19T11:47:40;7.40;;;4.40;;
69026;SDS011;56080;47.594;19.116;2022-08-19T11:52:39;8.20;;;4.30;;
69026;SDS011;56080;47.594;19.116;2022-08-19T11:57:39;8.20;;;4.30;;
69026;SDS011;56080;47.594;19.116;2022-08-19T12:02:39;6.20;;;4.20;;
69026;SDS011;56080;47.594;19.116;2022-08-19T12:07:43;6.20;;;4.20;;
69026;SDS011;56080;47.594;19.116;2022-08-19T12:12:39;6.60;;;3.70;;
69026;SDS011;56080;47.594;19.116;2022-08-19T12:17:41;6.60;;;3.70;;
69026;SDS011;56080;47.594;19.116;2022-08-19T12:22:39;8.10;;;5.00;;
69026;SDS011;56080;47.594;19.116;2022-08-19T12:27:49;8.10;;;5.00;;
69026;SDS011;56080;47.594;19.116;2022-08-19T12:32:39;6.10;;;3.80;;
69026;SDS011;56080;47.594;19.116;2022-08-19T12:37:40;6.10;;;3.80;;
69026;SDS011;56080;47.594;19.116;2022-08-19T12:42:40;8.20;;;5.50;;
69026;SDS011;56080;47.594;19.116;2022-08-19T12:47:42;8.20;;;5.50;;
69026;SDS011;56080;47.594;19.116;2022-08-19T12:52:39;13.00;;;8.80;;
69026;SDS011;56080;47.594;19.116;2022-08-19T12:57:45;13.00;;;8.80;;
69026;SDS011;56080;47.594;19.116;2022-08-19T13:02:43;8.50;;;4.80;;
69026;SDS011;56080;47.594;19.116;2022-08-19T13:07:42;8.50;;;4.80;;
69026;SDS011;56080;47.594;19.116;2022-08-19T13:12:39;11.20;;;8.00;;
69026;SDS011;56080;47.594;19.116;2022-08-19T13:17:39;11.20;;;8.00;;
69026;SDS011;56080;47.594;19.116;2022-08-19T13:22:39;11.00;;;6.60;;
69026;SDS011;56080;47.594;19.116;2022-08-19T13:27:39;11.00;;;6.60;;
69026;SDS011;56080;47.594;19.116;2022-08-19T13:32:50;13.70;;;7.70;;
69026;SDS011;56080;47.594;19.116;2022-08-19T13:37:49;13.70;;;7.70;;
69026;SDS011;56080;47.594;19.116;2022-08-19T13:42:40;12.00;;;9.20;;
69026;SDS011;56080;47.594;19.116;2022-08-19T13:47:39;12.00;;;9.20;;
69026;SDS011;56080;47.594;19.116;2022-08-19T13:52:39;12.10;;;10.00;;
69026;SDS011;56080;47.594;19.116;2022-08-19T13:57:40;12.10;;;10.00;;
69026;SDS011;56080;47.594;19.116;2022-08-19T14:02:39;10.80;;;8.20;;
69026;SDS011;56080;47.594;19.116;2022-08-19T14:07:39;10.80;;;8.20;;
69026;SDS011;56080;47.594;19.116;2022-08-19T14:12:39;10.60;;;7.60;;
69026;SDS011;56080;47.594;19.116;2022-08-19T14:17:40;10.60;;;7.60;;
69026;SDS011;56080;47.594;19.116;2022-08-19T14:22:40;10.30;;;5.20;;
69026;SDS011;56080;47.594;19.116;2022-08-19T14:27:40;10.30;;;5.20;;
69026;SDS011;56080;47.594;19.116;2022-08-19T14:32:39;8.80;;;4.20;;
69026;SDS011;56080;47.594;19.116;2022-08-19T14:37:39;8.80;;;4.20;;
69026;SDS011;56080;47.594;19.116;2022-08-19T14:42:39;8.70;;;3.80;;
69026;SDS011;56080;47.594;19.116;2022-08-19T14:47:43;8.70;;;3.80;;
69026;SDS011;56080;47.594;19.116;2022-08-19T14:52:39;9.00;;;4.20;;
69026;SDS011;56080;47.594;19.116;2022-08-19T14:57:41;9.00;;;4.20;;
69026;SDS011;56080;47.594;19.116;2022-08-19T15:02:46;10.70;;;3.80;;
69026;SDS011;56080;47.594;19.116;2022-08-19T15:07:40;10.70;;;3.80;;
69026;SDS011;56080;47.594;19.116;2022-08-19T15:12:40;10.90;;;3.30;;
69026;SDS011;56080;47.594;19.116;2022-08-19T15:17:50;10.90;;;3.30;;
69026;SDS011;56080;47.594;19.116;2022-08-19T15:22:39;8.00;;;2.60;;
69026;SDS011;56080;47.594;19.116;2022-08-19T15:27:39;8.00;;;2.60;;
69026;SDS011;56080;47.594;19.116;2022-08-19T15:32:39;8.30;;;2.80;;
69026;SDS011;56080;47.594;19.116;2022-08-19T15:37:39;8.30;;;2.80;;
69026;SDS011;56080;47.594;19.116;2022-08-19T15:42:41;7.60;;;2.50;;
69026;SDS011;56080;47.594;19.116;2022-08-19T15:47:46;7.60;;;2.50;;
69026;SDS011;56080;47.594;19.116;2022-08-19T15:52:47;7.10;;;2.30;;
69026;SDS011;56080;47.594;19.116;2022-08-19T15:57:39;7.10;;;2.30;;
69026;SDS011;56080;47.594;19.116;2022-08-19T16:02:52;8.30;;;2.00;;
69026;SDS011;56080;47.594;19.116;2022-08-19T16:07:39;8.30;;;2.00;;
69026;SDS011;56080;47.594;19.116;2022-08-19T16:12:40;6.90;;;2.30;;
69026;SDS011;56080;47.594;19.116;2022-08-19T16:17:40;6.90;;;2.30;;
69026;SDS011;56080;47.594;19.116;2022-08-19T16:22:41;9.60;;;2.30;;
69026;SDS011;56080;47.594;19.116;2022-08-19T16:27:40;9.60;;;2.30;;
69026;SDS011;56080;47.594;19.116;2022-08-19T16:32:41;8.80;;;2.20;;
69026;SDS011;56080;47.594;19.116;2022-08-19T16:37:40;8.80;;;2.20;;
69026;SDS011;56080;47.594;19.116;2022-08-19T16:42:39;9.00;;;2.40;;
69026;SDS011;56080;47.594;19.116;2022-08-19T16:47:39;9.00;;;2.40;;
69026;SDS011;56080;47.594;19.116;2022-08-19T16:52:39;6.90;;;2.10;;
69026;SDS011;56080;47.594;19.116;2022-08-19T16:57:41;6.90;;;2.10;;
69026;SDS011;56080;47.594;19.116;2022-08-19T17:02:40;6.90;;;1.90;;
69026;SDS011;56080;47.594;19.116;2022-08-19T17:07:43;6.90;;;1.90;;
69026;SDS011;56080;47.594;19.116;2022-08-19T17:12:44;8.90;;;2.80;;
69026;SDS011;56080;47.594;19.116;2022-08-19T17:17:40;8.90;;;2.80;;
69026;SDS011;56080;47.594;19.116;2022-08-19T17:22:39;7.80;;;2.10;;
69026;SDS011;56080;47.594;19.116;2022-08-19T17:27:43;7.80;;;2.10;;
69026;SDS011;56080;47.594;19.116;2022-08-19T17:32:41;6.70;;;2.20;;
69026;SDS011;56080;47.594;19.116;2022-08-19T17:37:40;6.70;;;2.20;;
69026;SDS011;56080;47.594;19.116;2022-08-19T17:42:41;8.50;;;2.30;;
69026;SDS011;56080;47.594;19.116;2022-08-19T17:47:40;8.50;;;2.30;;
69026;SDS011;56080;47.594;19.116;2022-08-19T17:52:39;9.80;;;2.30;;
69026;SDS011;56080;47.594;19.116;2022-08-19T17:57:40;9.80;;;2.30;;
69026;SDS011;56080;47.594;19.116;2022-08-19T18:02:50;6.40;;;2.10;;
69026;SDS011;56080;47.594;19.116;2022-08-19T18:07:43;6.40;;;2.10;;
69026;SDS011;56080;47.594;19.116;2022-08-19T18:12:40;7.20;;;3.30;;
69026;SDS011;56080;47.594;19.116;2022-08-19T18:17:40;7.20;;;3.30;;
69026;SDS011;56080;47.594;19.116;2022-08-19T18:22:42;9.10;;;3.20;;
69026;SDS011;56080;47.594;19.116;2022-08-19T18:27:40;9.10;;;3.20;;
69026;SDS011;56080;47.594;19.116;2022-08-19T18:32:43;7.30;;;2.60;;
69026;SDS011;56080;47.594;19.116;2022-08-19T18:37:40;7.30;;;2.60;;
69026;SDS011;56080;47.594;19.116;2022-08-19T18:42:51;8.60;;;3.10;;
69026;SDS011;56080;47.594;19.116;2022-08-19T18:47:49;8.60;;;3.10;;
69026;SDS011;56080;47.594;19.116;2022-08-19T18:52:39;10.90;;;3.50;;
69026;SDS011;56080;47.594;19.116;2022-08-19T18:57:39;10.90;;;3.50;;
69026;SDS011;56080;47.594;19.116;2022-08-19T19:02:45;9.90;;;3.10;;
69026;SDS011;56080;47.594;19.116;2022-08-19T19:07:40;9.90;;;3.10;;
69026;SDS011;56080;47.594;19.116;2022-08-19T19:12:44;12.20;;;3.70;;
69026;SDS011;56080;47.594;19.116;2022-08-19T19:17:40;12.20;;;3.70;;
69026;SDS011;56080;47.594;19.116;2022-08-19T19:22:39;11.40;;;3.20;;
69026;SDS011;56080;47.594;19.116;2022-08-19T19:27:40;11.40;;;3.20;;
69026;SDS011;56080;47.594;19.116;2022-08-19T19:32:44;8.40;;;3.40;;
69026;SDS011;56080;47.594;19.116;2022-08-19T19:37:40;8.40;;;3.40;;
69026;SDS011;56080;47.594;19.116;2022-08-19T19:42:39;7.00;;;2.60;;
69026;SDS011;56080;47.594;19.116;2022-08-19T19:47:40;7.00;;;2.60;;
69026;SDS011;56080;47.594;19.116;2022-08-19T19:52:40;7.80;;;3.10;;
69026;SDS011;56080;47.594;19.116;2022-08-19T19:57:39;7.80;;;3.10;;
69026;SDS011;56080;47.594;19.116;2022-08-19T20:02:39;7.40;;;2.90;;
69026;SDS011;56080;47.594;19.116;2022-08-19T20:07:50;7.40;;;2.90;;
69026;SDS011;56080;47.594;19.116;2022-08-19T20:12:39;8.80;;;3.20;;
69026;SDS011;56080;47.594;19.116;2022-08-19T20:17:40;8.80;;;3.20;;
69026;SDS011;56080;47.594;19.116;2022-08-19T20:22:47;9.40;;;3.40;;
69026;SDS011;56080;47.594;19.116;2022-08-19T20:27:48;9.40;;;3.40;;
69026;SDS011;56080;47.594;19.116;2022-08-19T20:32:40;10.00;;;3.90;;
69026;SDS011;56080;47.594;19.116;2022-08-19T20:37:39;10.00;;;3.90;;
69026;SDS011;56080;47.594;19.116;2022-08-19T20:42:40;9.80;;;4.70;;
69026;SDS011;56080;47.594;19.116;2022-08-19T20:47:42;9.80;;;4.70;;
69026;SDS011;56080;47.594;19.116;2022-08-19T20:52:40;13.50;;;6.30;;
69026;SDS011;56080;47.594;19.116;2022-08-19T20:57:39;13.50;;;6.30;;
69026;SDS011;56080;47.594;19.116;2022-08-19T21:02:39;10.50;;;5.60;;
69026;SDS011;56080;47.594;19.116;2022-08-19T21:07:49;10.50;;;5.60;;
69026;SDS011;56080;47.594;19.116;2022-08-19T21:12:40;12.20;;;6.40;;
69026;SDS011;56080;47.594;19.116;2022-08-19T21:17:40;12.20;;;6.40;;
69026;SDS011;56080;47.594;19.116;2022-08-19T21:22:40;9.20;;;5.90;;
69026;SDS011;56080;47.594;19.116;2022-08-19T21:27:40;9.20;;;5.90;;
69026;SDS011;56080;47.594;19.116;2022-08-19T21:32:40;10.10;;;6.00;;
69026;SDS011;56080;47.594;19.116;2022-08-19T21:37:42;10.10;;;6.00;;
69026;SDS011;56080;47.594;19.116;2022-08-19T21:42:39;9.90;;;5.50;;
69026;SDS011;56080;47.594;19.116;2022-08-19T21:47:39;9.90;;;5.50;;
69026;SDS011;56080;47.594;19.116;2022-08-19T21:52:39;9.60;;;6.20;;
69026;SDS011;56080;47.594;19.116;2022-08-19T21:57:40;9.60;;;6.20;;
69026;SDS011;56080;47.594;19.116;2022-08-19T22:02:40;10.40;;;6.20;;
69026;SDS011;56080;47.594;19.116;2022-08-19T22:07:39;10.40;;;6.20;;
69026;SDS011;56080;47.594;19.116;2022-08-19T22:12:40;9.50;;;6.10;;
69026;SDS011;56080;47.594;19.116;2022-08-19T22:17:40;9.50;;;6.10;;
69026;SDS011;56080;47.594;19.116;2022-08-19T22:22:49;9.00;;;6.40;;
69026;SDS011;56080;47.594;19.116;2022-08-19T22:27:40;9.00;;;6.40;;
69026;SDS011;56080;47.594;19.116;2022-08-19T22:32:44;10.30;;;6.30;;
69026;SDS011;56080;47.594;19.116;2022-08-19T22:37:41;10.30;;;6.30;;
69026;SDS011;56080;47.594;19.116;2022-08-19T22:42:43;9.20;;;6.50;;
69026;SDS011;56080;47.594;19.116;2022-08-19T22:47:50;9.20;;;6.50;;
69026;SDS011;56080;47.594;19.116;2022-08-19T22:52:40;10.10;;;6.30;;
69026;SDS011;56080;47.594;19.116;2022-08-19T22:57:40;10.10;;;6.30;;
69026;SDS011;56080;47.594;19.116;2022-08-19T23:02:42;9.60;;;6.40;;
69026;SDS011;56080;47.594;19.116;2022-08-19T23:07:40;9.60;;;6.40;;
69026;SDS011;56080;47.594;19.116;2022-08-19T23:12:42;10.10;;;6.30;;
69026;SDS011;56080;47.594;19.116;2022-08-19T23:22:41;9.60;;;6.00;;
69026;SDS011;56080;47.594;19.116;2022-08-19T23:27:50;9.60;;;6.00;;
69026;SDS011;56080;47.594;19.116;2022-08-19T23:32:43;9.80;;;6.50;;
69026;SDS011;56080;47.594;19.116;2022-08-19T23:37:39;9.80;;;6.50;;
69026;SDS011;56080;47.594;19.116;2022-08-19T23:42:41;8.10;;;5.90;;
69026;SDS011;56080;47.594;19.116;2022-08-19T23:52:42;8.90;;;6.40;;
69026;SDS011;56080;47.594;19.116;2022-08-19T23:57:39;8.90;;;6.40;;
